LJLJ/LJU METAR and TAF weather

Enter ICAO airport designator
Station Type Date Time Source
LJLJ METAR 2021/05/16 00:00 UTC NOAA

LJLJ 160000Z 07003KT 9999 -SHRA FEW027TCU BKN033 11/10 Q1007 NOSIG


Station Type Date Time Source
LJLJ Decoded METAR 2021/05/16 00:00 UTC NOAA

Ljubljana / Brnik, Slovenia (LJLJ) 46-13N 014-29E 362M
May 15, 2021 - 08:00 PM EDT / 2021.05.16 0000 UTC
Wind: from the ENE (070 degrees) at 3 MPH (3 KT):0
Visibility: greater than 7 mile(s):0
Sky conditions: mostly cloudy
Weather: light rain showers; Towering cumulus clouds observed
Temperature: 51 F (11 C)
Dew Point: 50 F (10 C)
Relative Humidity: 93%
Pressure (altimeter): 29.74 in. Hg (1007 hPa)
ob: LJLJ 160000Z 07003KT 9999 -SHRA FEW027TCU BKN033 11/10 Q1007 NOSIG
cycle: 0

Station Type Date Time Source
LJLJ TAF 2021/05/15 18:06 UTC NOAA

TAF LJLJ 151700Z 1518/1618 VRB02KT 9999 SCT030 BKN050 PROB40
TEMPO 1522/1604 -RA
TEMPO 1600/1606 BKN005 PROB40
TEMPO 1611/1618 SHRA SCT020TCU BKN040 PROB30
TEMPO 1612/1617 5000 TSRA SCT020CB BKN040
TEMPO 1612/1618 24010KT

Example: see airport list